Time;durP1;ratioP1;P1;durP2;ratioP2;P2;SDS_P1;SDS_P2;PMS_P1;PMS_P2;Temp;Humidity;BMP_temperature;BMP_pressure;BME280_temperature;BME280_humidity;BME280_pressure;Samples;Min_cycle;Max_cycle;Signal;HPM_P1;HPM_P2
2022/04/13 00:00:20;;;;;;;11.73;2.20;;;19.80;72.40;;;;;;5047086;28;20576;-85
2022/04/13 00:02:48;;;;;;;10.87;2.30;;;19.80;71.40;;;;;;5054358;28;20176;-80
2022/04/13 00:05:15;;;;;;;10.87;2.50;;;19.80;72.00;;;;;;5048860;28;20185;-79
2022/04/13 00:07:43;;;;;;;8.80;2.70;;;20.00;71.40;;;;;;5052570;28;20187;-75
2022/04/13 00:10:10;;;;;;;8.77;2.30;;;20.00;70.80;;;;;;5050731;28;20740;-81
2022/04/13 00:12:38;;;;;;;5.20;2.30;;;20.20;70.90;;;;;;5045237;28;20211;-77
2022/04/13 00:15:08;;;;;;;7.63;2.40;;;20.20;71.20;;;;;;5053064;28;20187;-73
2022/04/13 00:17:38;;;;;;;9.07;2.10;;;20.30;70.70;;;;;;5051044;28;20237;-78
2022/04/13 00:20:07;;;;;;;10.57;2.73;;;20.30;70.20;;;;;;5051803;28;20554;-87
2022/04/13 00:22:34;;;;;;;9.93;1.93;;;20.80;69.80;;;;;;5050060;28;20188;-83
2022/04/13 00:25:02;;;;;;;10.17;2.07;;;21.00;68.50;;;;;;5052327;28;20240;-78
2022/04/13 00:27:29;;;;;;;7.30;1.60;;;20.90;69.10;;;;;;5052551;28;20195;-84
2022/04/13 00:29:57;;;;;;;8.40;2.00;;;20.90;69.50;;;;;;5053337;28;20298;-80
2022/04/13 00:32:25;;;;;;;4.97;1.70;;;20.90;69.00;;;;;;5065468;28;20603;-80
2022/04/13 00:34:54;;;;;;;7.80;2.10;;;20.90;69.70;;;;;;5062117;28;20226;-76
2022/04/13 00:37:21;;;;;;;4.23;1.60;;;20.80;70.00;;;;;;5064352;28;20606;-78
2022/04/13 00:39:49;;;;;;;9.30;1.60;;;20.80;70.10;;;;;;5059040;28;20192;-74
2022/04/13 00:42:17;;;;;;;4.97;1.80;;;20.70;70.00;;;;;;5060696;28;20223;-76
2022/04/13 00:44:44;;;;;;;3.27;1.20;;;20.60;70.80;;;;;;5059075;28;20176;-79
2022/04/13 00:47:13;;;;;;;8.53;2.07;;;20.60;70.50;;;;;;5058633;28;20735;-75
2022/04/13 00:49:40;;;;;;;3.87;1.47;;;20.60;70.80;;;;;;5054052;28;20219;-74
2022/04/13 00:52:11;;;;;;;2.40;1.50;;;20.80;69.40;;;;;;5053137;28;20188;-74
2022/04/13 00:54:41;;;;;;;4.83;1.63;;;20.80;69.30;;;;;;5055274;28;20260;-77
2022/04/13 00:57:11;;;;;;;7.57;1.90;;;20.80;69.10;;;;;;5080522;28;20183;-76
2022/04/13 00:59:39;;;;;;;5.43;2.47;;;20.80;69.00;;;;;;5054566;28;20545;-75
2022/04/13 01:02:12;;;;;;;5.80;1.40;;;21.00;69.10;;;;;;5049938;28;20191;-80
2022/04/13 01:04:40;;;;;;;9.03;1.90;;;21.40;68.00;;;;;;5055537;28;20192;-80
2022/04/13 01:07:09;;;;;;;6.67;1.70;;;21.40;67.10;;;;;;5051578;28;20188;-77
2022/04/13 01:09:37;;;;;;;5.40;1.47;;;21.30;67.30;;;;;;5051219;28;20684;-81
2022/04/13 01:12:06;;;;;;;5.30;1.50;;;21.10;67.90;;;;;;5049077;28;20271;-78
2022/04/13 01:14:34;;;;;;;6.23;1.50;;;21.50;68.00;;;;;;5051216;28;20196;-77
2022/04/13 01:17:02;;;;;;;7.43;1.90;;;22.10;66.50;;;;;;5051987;28;20548;-76
2022/04/13 01:19:31;;;;;;;3.33;1.30;;;22.40;64.60;;;;;;5052547;28;20172;-80
2022/04/13 01:22:03;;;;;;;4.60;1.57;;;22.40;64.70;;;;;;5050404;28;20502;-76
2022/04/13 01:24:32;;;;;;;6.37;1.50;;;22.30;65.50;;;;;;5049930;28;20196;-74
2022/04/13 01:27:00;;;;;;;4.77;1.77;;;21.90;65.00;;;;;;5046539;28;20175;-79
2022/04/13 01:29:27;;;;;;;6.40;1.90;;;21.30;67.30;;;;;;5043370;28;20189;-77
2022/04/13 01:31:55;;;;;;;7.77;1.57;;;21.40;66.90;;;;;;5048170;28;20638;-76
2022/04/13 01:34:22;;;;;;;2.97;1.47;;;21.50;66.30;;;;;;5051129;28;20176;-77
2022/04/13 01:36:49;;;;;;;3.17;1.40;;;21.80;66.10;;;;;;5052067;28;20547;-75
2022/04/13 01:39:17;;;;;;;4.27;1.70;;;22.10;64.80;;;;;;5052269;28;20180;-76
2022/04/13 01:41:45;;;;;;;4.17;1.87;;;22.50;64.60;;;;;;5035379;28;20298;-78
2022/04/13 01:44:15;;;;;;;3.73;1.40;;;22.20;63.40;;;;;;5056053;28;20532;-79
2022/04/13 01:46:42;;;;;;;3.27;1.53;;;22.00;64.70;;;;;;5055946;28;20184;-75
2022/04/13 01:49:10;;;;;;;4.13;2.00;;;21.80;64.90;;;;;;5055422;28;20164;-75
2022/04/13 01:51:37;;;;;;;4.30;1.63;;;21.50;66.10;;;;;;5054213;28;20207;-78
2022/04/13 01:54:05;;;;;;;4.67;1.40;;;21.70;66.00;;;;;;5054391;28;20244;-85
2022/04/13 01:56:32;;;;;;;4.03;1.33;;;22.10;64.80;;;;;;5053036;28;20598;-84
2022/04/13 01:59:00;;;;;;;4.43;1.33;;;22.30;63.50;;;;;;5054066;28;20171;-73
2022/04/13 02:01:27;;;;;;;4.53;1.40;;;22.00;64.00;;;;;;5054236;28;20171;-77
2022/04/13 02:03:54;;;;;;;9.90;1.60;;;22.20;64.00;;;;;;5074087;28;20221;-76
2022/04/13 02:06:22;;;;;;;3.43;1.37;;;22.30;64.40;;;;;;5078350;28;20163;-79
2022/04/13 02:08:49;;;;;;;4.60;1.37;;;22.30;64.00;;;;;;5082076;28;20232;-82
2022/04/13 02:11:16;;;;;;;4.20;1.57;;;22.50;63.80;;;;;;5081537;28;20245;-85
2022/04/13 02:13:44;;;;;;;5.40;1.30;;;22.30;63.80;;;;;;5080530;28;20197;-79
2022/04/13 02:16:12;;;;;;;3.80;1.77;;;22.00;65.60;;;;;;5077130;28;20254;-78
2022/04/13 02:18:40;;;;;;;4.90;1.60;;;21.90;66.40;;;;;;5079547;28;20167;-76
2022/04/13 02:21:08;;;;;;;2.23;1.17;;;21.70;67.10;;;;;;5080769;28;20231;-77
2022/04/13 02:23:35;;;;;;;2.37;1.30;;;21.70;67.10;;;;;;5077087;28;20175;-81
2022/04/13 02:26:02;;;;;;;2.47;0.93;;;22.20;66.70;;;;;;5067197;28;20803;-76
2022/04/13 02:28:30;;;;;;;2.13;1.10;;;22.40;64.30;;;;;;5053229;28;20258;-76
2022/04/13 02:31:01;;;;;;;2.30;1.03;;;22.00;64.30;;;;;;5046341;28;20787;-77
2022/04/13 02:33:31;;;;;;;1.83;1.10;;;22.50;63.70;;;;;;5067567;28;20171;-74
2022/04/13 02:35:59;;;;;;;2.17;1.17;;;23.30;60.60;;;;;;5061291;28;20183;-81
2022/04/13 02:38:27;;;;;;;3.03;1.40;;;23.20;60.20;;;;;;5054597;28;20196;-78
2022/04/13 02:40:54;;;;;;;5.17;1.20;;;23.30;59.70;;;;;;5055176;28;20221;-77
2022/04/13 02:43:21;;;;;;;3.30;1.27;;;23.50;59.30;;;;;;5054821;28;20680;-81
2022/04/13 02:45:49;;;;;;;5.13;1.60;;;23.40;59.80;;;;;;5054892;28;20180;-76
2022/04/13 02:48:16;;;;;;;4.97;1.20;;;23.50;60.20;;;;;;5051172;28;20176;-82
2022/04/13 02:50:43;;;;;;;4.17;1.50;;;23.80;58.10;;;;;;5054979;28;20727;-78
2022/04/13 02:53:10;;;;;;;3.47;1.30;;;23.40;59.40;;;;;;5055090;28;20191;-81
2022/04/13 02:55:38;;;;;;;3.03;1.10;;;23.60;59.10;;;;;;5055291;28;20218;-80
2022/04/13 02:58:05;;;;;;;2.50;1.20;;;23.10;59.70;;;;;;5054717;28;20531;-84
2022/04/13 03:00:33;;;;;;;4.07;1.30;;;23.10;60.20;;;;;;5054665;28;20229;-79
2022/04/13 03:03:00;;;;;;;5.37;1.43;;;23.10;60.60;;;;;;5066865;28;20185;-78
2022/04/13 03:05:28;;;;;;;5.67;1.70;;;23.80;59.50;;;;;;5074936;28;20494;-75
2022/04/13 03:07:55;;;;;;;2.87;1.27;;;24.50;57.60;;;;;;5074429;28;20202;-81
2022/04/13 03:10:23;;;;;;;2.33;1.57;;;24.40;57.70;;;;;;5064688;28;20239;-84
2022/04/13 03:12:50;;;;;;;6.03;1.80;;;24.00;58.50;;;;;;5054488;28;20168;-73
2022/04/13 03:15:22;;;;;;;4.33;1.53;;;24.70;57.30;;;;;;5054677;28;20289;-77
2022/04/13 03:17:53;;;;;;;3.67;1.33;;;24.10;57.70;;;;;;5053738;28;20172;-83
2022/04/13 03:20:20;;;;;;;4.20;1.40;;;23.10;60.50;;;;;;5053078;28;20172;-76
2022/04/13 03:22:50;;;;;;;5.17;1.40;;;22.50;63.50;;;;;;5054572;28;20195;-81
2022/04/13 03:25:17;;;;;;;4.13;1.30;;;22.20;65.10;;;;;;5054319;28;20168;-78
2022/04/13 03:27:45;;;;;;;5.00;1.43;;;22.10;65.40;;;;;;5054218;28;20265;-78
2022/04/13 03:30:16;;;;;;;4.23;1.53;;;21.60;66.50;;;;;;5054795;28;20198;-77
2022/04/13 03:32:43;;;;;;;3.73;1.17;;;21.20;68.00;;;;;;5054484;28;20654;-79
2022/04/13 03:35:12;;;;;;;4.20;1.40;;;20.90;69.90;;;;;;5054759;28;20164;-84
2022/04/13 03:37:40;;;;;;;3.70;1.80;;;21.20;69.80;;;;;;5054050;28;20172;-77
2022/04/13 03:40:12;;;;;;;4.83;1.53;;;21.70;67.80;;;;;;5046563;28;20195;-77
2022/04/13 03:42:41;;;;;;;3.03;1.10;;;21.60;67.40;;;;;;5053279;28;20632;-77
2022/04/13 03:45:12;;;;;;;4.77;1.53;;;21.50;67.80;;;;;;5054289;28;20246;-81
2022/04/13 03:47:40;;;;;;;4.03;1.33;;;21.80;67.30;;;;;;5053850;28;20172;-79
2022/04/13 03:50:09;;;;;;;5.13;1.27;;;22.40;65.80;;;;;;5051318;28;20536;-80
2022/04/13 03:52:37;;;;;;;4.00;1.30;;;22.90;63.30;;;;;;5053975;28;20176;-75
2022/04/13 03:55:07;;;;;;;5.60;1.57;;;22.40;64.10;;;;;;5053829;28;20179;-88
2022/04/13 03:57:34;;;;;;;3.23;1.23;;;21.80;67.10;;;;;;5053893;28;20642;-82
2022/04/13 04:00:02;;;;;;;2.37;1.27;;;21.70;67.20;;;;;;5054049;28;20171;-76
2022/04/13 04:02:30;;;;;;;3.80;1.60;;;21.50;67.90;;;;;;5046903;28;20202;-74
2022/04/13 04:04:57;;;;;;;4.63;1.60;;;21.30;70.10;;;;;;5051678;28;20180;-74
2022/04/13 04:07:24;;;;;;;4.63;1.33;;;21.30;71.30;;;;;;5053711;28;20183;-74
2022/04/13 04:09:52;;;;;;;5.17;1.50;;;21.20;70.80;;;;;;5053448;28;20200;-76
2022/04/13 04:12:19;;;;;;;5.67;1.77;;;21.20;70.60;;;;;;5053418;28;20176;-77
2022/04/13 04:14:46;;;;;;;3.03;1.30;;;21.20;70.50;;;;;;5052712;28;20168;-80
2022/04/13 04:17:14;;;;;;;2.53;1.40;;;21.40;69.70;;;;;;5053244;28;20653;-76
2022/04/13 04:19:41;;;;;;;3.47;1.43;;;21.10;69.20;;;;;;5053437;28;20251;-78
2022/04/13 04:22:09;;;;;;;6.10;1.40;;;21.20;69.30;;;;;;5053262;28;20718;-86
2022/04/13 04:24:36;;;;;;;4.13;1.93;;;21.20;69.50;;;;;;5051012;28;20172;-80
2022/04/13 04:27:03;;;;;;;4.53;1.53;;;21.20;69.10;;;;;;5041084;28;20650;-81
2022/04/13 04:29:31;;;;;;;3.97;1.60;;;20.90;69.30;;;;;;5046004;28;20606;-82
2022/04/13 04:31:59;;;;;;;3.83;1.30;;;20.80;70.50;;;;;;5053315;28;20188;-78
2022/04/13 04:34:27;;;;;;;4.87;2.00;;;20.80;70.70;;;;;;5053347;28;20179;-82
2022/04/13 04:36:54;;;;;;;4.00;1.37;;;20.70;70.30;;;;;;5053567;28;20512;-81
2022/04/13 04:39:22;;;;;;;2.87;1.30;;;20.80;69.90;;;;;;5052435;28;21679;-74
2022/04/13 04:41:49;;;;;;;3.90;1.50;;;20.60;70.00;;;;;;5052475;28;20227;-79
2022/04/13 04:44:16;;;;;;;3.80;1.40;;;20.60;70.30;;;;;;5053299;28;20187;-77
2022/04/13 04:46:44;;;;;;;4.30;1.67;;;20.80;69.10;;;;;;5052983;28;20176;-79
2022/04/13 04:49:11;;;;;;;2.90;1.30;;;20.90;69.10;;;;;;5049799;28;20237;-80
2022/04/13 04:51:38;;;;;;;3.00;1.30;;;21.00;69.00;;;;;;5052838;28;20222;-73
2022/04/13 04:54:06;;;;;;;4.07;1.30;;;21.60;68.10;;;;;;5049716;28;20184;-76
2022/04/13 04:56:35;;;;;;;2.27;1.13;;;22.60;64.70;;;;;;5052419;28;20237;-75
2022/04/13 04:59:03;;;;;;;3.83;1.27;;;23.20;61.40;;;;;;5041552;28;20666;-78
2022/04/13 05:01:30;;;;;;;1.90;0.70;;;22.60;63.00;;;;;;5051222;28;20180;-76
2022/04/13 05:03:57;;;;;;;4.20;1.20;;;22.10;64.00;;;;;;5047619;28;20184;-74
2022/04/13 05:06:29;;;;;;;3.90;0.90;;;22.90;61.90;;;;;;5052565;28;20175;-75
2022/04/13 05:08:57;;;;;;;4.23;1.03;;;23.80;59.30;;;;;;5051911;28;20184;-75
2022/04/13 05:11:24;;;;;;;1.83;1.00;;;24.30;57.70;;;;;;5049574;28;20207;-76
2022/04/13 05:13:52;;;;;;;2.13;1.10;;;24.60;57.50;;;;;;5052431;28;20180;-73
2022/04/13 05:16:20;;;;;;;2.90;1.30;;;24.00;59.30;;;;;;5050512;28;20203;-74
2022/04/13 05:18:47;;;;;;;1.83;1.10;;;23.00;61.90;;;;;;5049304;28;20184;-78
2022/04/13 05:21:16;;;;;;;1.70;0.90;;;22.10;64.20;;;;;;5045338;28;20168;-76
2022/04/13 05:23:43;;;;;;;2.63;1.20;;;21.40;67.00;;;;;;5049226;28;20187;-74
2022/04/13 05:26:11;;;;;;;1.53;1.13;;;21.10;69.50;;;;;;5051114;28;20176;-78
2022/04/13 05:28:39;;;;;;;2.03;1.13;;;20.80;71.60;;;;;;5032493;28;20246;-76
2022/04/13 05:31:07;;;;;;;4.87;1.57;;;20.80;73.40;;;;;;5034644;28;20303;-73
2022/04/13 05:33:34;;;;;;;2.53;1.37;;;20.60;73.40;;;;;;5050101;28;20179;-75
2022/04/13 05:36:03;;;;;;;1.73;1.10;;;20.30;74.70;;;;;;5051180;28;20190;-77
2022/04/13 05:38:30;;;;;;;4.77;1.47;;;20.30;75.40;;;;;;5051438;28;20230;-76
2022/04/13 05:40:57;;;;;;;7.00;1.80;;;20.00;75.00;;;;;;5052050;28;20212;-74
2022/04/13 05:43:30;;;;;;;4.67;1.70;;;19.70;76.60;;;;;;5050741;28;20234;-78
2022/04/13 05:45:57;;;;;;;4.27;1.70;;;19.50;77.90;;;;;;5050421;28;20546;-84
2022/04/13 05:48:25;;;;;;;4.67;1.70;;;19.30;78.70;;;;;;5051638;28;20164;-81
2022/04/13 05:50:52;;;;;;;3.73;1.80;;;19.30;78.80;;;;;;5048703;28;20231;-82
2022/04/13 05:53:21;;;;;;;3.33;1.60;;;19.10;80.70;;;;;;5051127;28;20253;-76
2022/04/13 05:55:55;;;;;;;1.80;1.40;;;19.00;81.10;;;;;;5051992;28;20179;-76
2022/04/13 05:58:29;;;;;;;2.13;1.40;;;18.90;81.30;;;;;;5051474;28;20187;-74
2022/04/13 06:00:56;;;;;;;3.83;1.53;;;18.70;83.50;;;;;;5051375;28;20195;-80
2022/04/13 06:03:24;;;;;;;6.37;2.03;;;18.50;85.00;;;;;;5058728;28;20251;-77
2022/04/13 06:05:51;;;;;;;2.47;1.10;;;18.50;86.10;;;;;;5048361;28;20218;-81
2022/04/13 06:08:19;;;;;;;3.00;1.23;;;18.30;86.60;;;;;;5047544;28;20638;-76
2022/04/13 06:10:47;;;;;;;2.93;1.50;;;18.20;86.90;;;;;;5044989;28;20242;-76
2022/04/13 06:13:14;;;;;;;7.83;2.20;;;18.10;87.30;;;;;;5049491;28;20179;-75
2022/04/13 06:15:44;;;;;;;3.67;1.40;;;18.20;89.10;;;;;;5049393;28;20186;-76
2022/04/13 06:18:12;;;;;;;8.00;2.07;;;18.30;89.70;;;;;;5032414;28;20256;-74
2022/04/13 06:20:39;;;;;;;5.07;1.63;;;18.40;89.40;;;;;;5051954;28;20172;-78
2022/04/13 06:23:07;;;;;;;4.27;1.77;;;18.40;89.10;;;;;;5050965;28;20643;-80
2022/04/13 06:25:34;;;;;;;3.13;1.37;;;18.30;89.20;;;;;;5051761;28;20255;-79
2022/04/13 06:28:01;;;;;;;6.90;1.47;;;18.10;88.80;;;;;;5050470;28;20184;-80
2022/04/13 06:30:29;;;;;;;4.13;1.23;;;18.10;88.70;;;;;;5054212;28;20206;-82
2022/04/13 06:32:56;;;;;;;5.57;1.53;;;18.20;88.90;;;;;;5054921;28;20233;-82
2022/04/13 06:35:23;;;;;;;3.10;1.27;;;18.30;88.80;;;;;;5055295;28;20577;-81
2022/04/13 06:37:51;;;;;;;3.13;1.70;;;18.30;89.00;;;;;;5054097;28;20180;-82
2022/04/13 06:40:19;;;;;;;4.77;1.77;;;18.40;88.90;;;;;;5056874;28;20183;-83
2022/04/13 06:42:47;;;;;;;5.20;1.60;;;18.40;89.10;;;;;;5047028;28;20697;-84
2022/04/13 06:45:16;;;;;;;3.00;1.47;;;18.30;88.40;;;;;;5048881;28;20639;-84
2022/04/13 06:47:44;;;;;;;3.70;1.40;;;18.20;89.00;;;;;;5048922;28;20198;-81
2022/04/13 06:50:12;;;;;;;2.43;1.37;;;18.20;88.80;;;;;;5045814;28;20212;-74
2022/04/13 06:52:40;;;;;;;3.53;1.50;;;18.30;89.20;;;;;;5048389;28;20188;-82
2022/04/13 06:55:11;;;;;;;2.83;1.37;;;18.30;88.60;;;;;;5045379;28;20273;-78
2022/04/13 06:57:39;;;;;;;2.63;1.33;;;18.30;88.90;;;;;;5048071;28;20176;-79
2022/04/13 07:00:08;;;;;;;4.40;1.80;;;18.30;88.00;;;;;;5051068;28;20192;-79
2022/04/13 07:02:37;;;;;;;5.13;1.80;;;18.20;88.70;;;;;;5045803;28;20184;-80
2022/04/13 07:05:05;;;;;;;4.43;1.60;;;18.10;88.20;;;;;;5049230;28;20187;-79
2022/04/13 07:07:32;;;;;;;4.97;1.77;;;18.10;88.30;;;;;;5048947;28;20218;-82
2022/04/13 07:10:00;;;;;;;6.07;1.80;;;18.00;88.80;;;;;;5049551;28;20689;-81
2022/04/13 07:12:38;;;;;;;3.47;1.30;;;17.80;88.90;;;;;;5046949;28;20202;-82
2022/04/13 07:15:06;;;;;;;6.50;1.60;;;17.80;89.40;;;;;;5051536;28;20755;-82
2022/04/13 07:17:35;;;;;;;4.87;1.77;;;17.70;89.40;;;;;;5053007;28;20212;-82
2022/04/13 07:20:03;;;;;;;6.73;1.50;;;17.60;89.00;;;;;;5050516;28;20274;-78
2022/04/13 07:22:30;;;;;;;6.07;1.77;;;17.50;88.80;;;;;;5048092;28;20188;-81
2022/04/13 07:24:57;;;;;;;3.40;1.70;;;17.50;88.70;;;;;;5053048;28;20187;-79
2022/04/13 07:27:25;;;;;;;6.00;1.87;;;17.60;89.50;;;;;;5048992;28;20194;-81
2022/04/13 07:29:52;;;;;;;6.53;1.83;;;17.30;89.50;;;;;;5050662;28;20294;-80
2022/04/13 07:32:19;;;;;;;10.20;2.60;;;17.20;90.90;;;;;;5047794;28;20280;-82
2022/04/13 07:34:47;;;;;;;4.40;1.60;;;17.20;91.30;;;;;;5047526;28;20251;-84
2022/04/13 07:37:16;;;;;;;5.83;1.60;;;17.10;91.40;;;;;;5054567;28;20186;-89
2022/04/13 07:39:44;;;;;;;3.93;1.67;;;17.10;91.50;;;;;;5050308;28;20202;-81
2022/04/13 07:42:11;;;;;;;5.13;1.63;;;17.20;91.80;;;;;;5050076;28;20231;-88
2022/04/13 07:44:38;;;;;;;5.27;1.80;;;17.20;91.50;;;;;;5044061;28;20545;-88
2022/04/13 07:47:06;;;;;;;6.63;4.50;;;17.20;91.90;;;;;;5044969;28;20556;-84
2022/04/13 07:49:35;;;;;;;3.57;1.60;;;17.20;92.00;;;;;;5046446;28;20184;-82
2022/04/13 07:52:02;;;;;;;5.70;1.47;;;17.20;92.10;;;;;;5049071;28;20187;-81
2022/04/13 07:54:30;;;;;;;2.10;1.30;;;17.20;92.40;;;;;;5052012;28;20674;-82
2022/04/13 07:56:58;;;;;;;3.70;0.90;;;17.20;92.30;;;;;;5051879;28;20208;-79
2022/04/13 07:59:25;;;;;;;5.07;1.53;;;17.20;92.20;;;;;;5052660;28;20183;-80
2022/04/13 08:01:52;;;;;;;6.63;1.50;;;17.20;92.00;;;;;;5052145;28;20270;-79
2022/04/13 08:04:20;;;;;;;4.33;1.43;;;17.20;92.10;;;;;;5051517;28;20190;-80
2022/04/13 08:06:48;;;;;;;6.07;1.80;;;17.20;91.90;;;;;;5049640;28;20505;-79
2022/04/13 08:09:16;;;;;;;7.00;2.00;;;17.20;92.10;;;;;;5053544;28;20570;-81
2022/04/13 08:11:45;;;;;;;6.23;2.30;;;17.20;92.10;;;;;;5052797;28;20698;-78
2022/04/13 08:14:13;;;;;;;8.07;1.73;;;17.20;92.20;;;;;;5052083;28;20195;-80
2022/04/13 08:16:40;;;;;;;5.93;1.80;;;17.00;92.00;;;;;;5052857;28;20186;-85
2022/04/13 08:19:07;;;;;;;5.33;1.70;;;17.10;92.30;;;;;;5051684;28;20657;-81
2022/04/13 08:21:37;;;;;;;3.23;1.60;;;17.10;92.50;;;;;;5052171;28;20190;-82
2022/04/13 08:24:06;;;;;;;12.37;2.27;;;17.10;92.60;;;;;;5053174;28;20171;-83
2022/04/13 08:26:33;;;;;;;5.60;1.67;;;17.20;92.70;;;;;;5052821;28;20189;-81
2022/04/13 08:29:00;;;;;;;6.50;1.90;;;17.20;92.70;;;;;;5056603;28;20176;-81
2022/04/13 08:31:28;;;;;;;5.03;1.87;;;17.20;92.90;;;;;;5051602;28;20238;-80
2022/04/13 08:33:55;;;;;;;3.80;1.77;;;17.10;93.00;;;;;;5051317;28;20211;-82
2022/04/13 08:36:22;;;;;;;7.23;1.87;;;17.10;92.80;;;;;;5040335;28;20197;-80
2022/04/13 08:38:50;;;;;;;4.90;2.30;;;17.00;92.80;;;;;;5052241;28;20187;-80
2022/04/13 08:41:27;;;;;;;4.33;2.00;;;17.00;93.00;;;;;;5052336;28;20219;-77
2022/04/13 08:44:04;;;;;;;6.37;2.10;;;16.90;93.00;;;;;;5048142;28;20586;-77
2022/04/13 08:46:37;;;;;;;4.20;1.70;;;16.90;93.10;;;;;;5051901;28;20179;-80
2022/04/13 08:49:08;;;;;;;4.60;1.90;;;16.90;92.90;;;;;;5052325;28;20187;-78
2022/04/13 08:51:37;;;;;;;4.40;1.90;;;16.90;93.10;;;;;;5050782;28;20260;-77
2022/04/13 08:54:13;;;;;;;5.83;1.90;;;16.90;92.90;;;;;;5044262;28;20184;-77
2022/04/13 08:56:43;;;;;;;3.73;1.80;;;16.90;92.90;;;;;;5050420;28;20186;-79
2022/04/13 08:59:16;;;;;;;3.67;1.60;;;16.80;92.50;;;;;;5051702;28;20180;-79
2022/04/13 09:01:55;;;;;;;8.47;2.00;;;16.80;92.80;;;;;;5046797;28;20266;-80
2022/04/13 09:04:28;;;;;;;1.87;1.50;;;16.80;92.60;;;;;;5050382;28;20187;-79
2022/04/13 09:07:01;;;;;;;4.43;1.93;;;16.80;92.50;;;;;;5051432;28;20175;-76
2022/04/13 09:09:59;;;;;;;5.00;1.90;;;16.80;92.50;;;;;;5042137;28;20176;-81
2022/04/13 09:12:30;;;;;;;4.77;2.00;;;16.80;92.60;;;;;;5051955;28;20203;-79
2022/04/13 09:15:07;;;;;;;3.57;2.30;;;16.70;92.50;;;;;;5033044;28;20195;-80
2022/04/13 09:17:35;;;;;;;5.77;2.00;;;16.70;92.70;;;;;;5050037;28;20194;-79
2022/04/13 09:20:03;;;;;;;4.93;2.50;;;16.70;92.70;;;;;;5051921;28;20225;-79
2022/04/13 09:22:31;;;;;;;5.60;2.30;;;16.70;92.70;;;;;;5053189;28;20267;-83
2022/04/13 09:25:01;;;;;;;8.57;2.60;;;16.80;92.70;;;;;;5050096;28;20190;-79
2022/04/13 09:27:29;;;;;;;6.37;2.80;;;16.80;92.70;;;;;;5050455;28;20530;-78
2022/04/13 09:29:56;;;;;;;4.60;2.60;;;16.80;92.60;;;;;;5064766;28;20613;-78
2022/04/13 09:32:24;;;;;;;6.80;2.87;;;16.80;92.50;;;;;;5050782;28;20191;-77
2022/04/13 09:34:53;;;;;;;5.17;2.70;;;16.70;92.50;;;;;;5052961;28;20217;-82
2022/04/13 09:37:21;;;;;;;14.60;3.63;;;16.70;92.60;;;;;;5052627;28;20326;-80
2022/04/13 09:39:49;;;;;;;7.07;3.80;;;16.70;92.70;;;;;;5049813;28;20191;-81
2022/04/13 09:42:16;;;;;;;10.13;5.90;;;16.70;93.00;;;;;;5061194;28;20266;-82
2022/04/13 09:44:53;;;;;;;5.90;5.30;;;16.70;92.90;;;;;;5057264;28;20194;-82
2022/04/13 09:47:21;;;;;;;7.67;5.50;;;16.80;92.90;;;;;;5032727;28;20194;-83
2022/04/13 09:49:53;;;;;;;6.60;5.03;;;16.80;93.10;;;;;;5032353;28;20241;-83
2022/04/13 09:52:33;;;;;;;7.93;5.13;;;16.70;93.00;;;;;;5051924;28;20199;-86
2022/04/13 09:55:04;;;;;;;6.07;5.47;;;16.70;93.30;;;;;;5049083;28;20270;-80
2022/04/13 09:57:31;;;;;;;10.27;4.97;;;16.70;93.30;;;;;;5053110;28;20187;-87
2022/04/13 10:00:07;;;;;;;10.50;4.90;;;16.70;93.30;;;;;;5051806;28;20179;-93
2022/04/13 10:02:35;;;;;;;7.30;4.20;;;16.70;93.40;;;;;;5060361;28;20180;-82
2022/04/13 10:05:05;;;;;;;6.53;4.80;;;16.60;93.30;;;;;;5057122;28;20543;-93
2022/04/13 10:07:32;;;;;;;6.07;4.23;;;16.60;93.30;;;;;;5056863;28;20177;-81
2022/04/13 10:10:00;;;;;;;6.27;4.80;;;16.70;93.60;;;;;;5050980;28;20679;-89
2022/04/13 10:12:27;;;;;;;6.13;4.43;;;16.70;93.70;;;;;;5056123;28;20202;-82
2022/04/13 10:15:08;;;;;;;10.60;4.60;;;16.60;93.60;;;;;;5055876;28;20183;-78
2022/04/13 10:17:35;;;;;;;8.90;4.13;;;16.70;93.60;;;;;;5073159;28;20190;-80
2022/04/13 10:20:03;;;;;;;12.70;4.73;;;16.60;93.50;;;;;;5058916;28;20195;-80
2022/04/13 10:22:30;;;;;;;7.53;4.40;;;16.60;93.70;;;;;;5054742;28;20649;-80
2022/04/13 10:25:17;;;;;;;7.47;4.73;;;16.70;93.80;;;;;;5053823;28;20253;-78
2022/04/13 10:27:54;;;;;;;11.20;4.90;;;16.70;93.80;;;;;;5053346;28;20182;-77
2022/04/13 10:30:32;;;;;;;5.90;4.47;;;16.70;93.80;;;;;;5053136;28;20312;-78
2022/04/13 10:33:01;;;;;;;7.10;4.37;;;16.70;93.70;;;;;;5066805;28;20175;-77
2022/04/13 10:35:30;;;;;;;11.37;4.63;;;16.70;93.80;;;;;;5074865;28;20247;-78
2022/04/13 10:37:58;;;;;;;5.73;3.93;;;16.70;93.60;;;;;;5075314;28;20217;-78
2022/04/13 10:40:45;;;;;;;7.60;3.90;;;16.70;93.60;;;;;;5054963;28;20180;-78
2022/04/13 10:43:13;;;;;;;7.13;4.30;;;16.70;93.40;;;;;;5054763;28;20729;-77
2022/04/13 10:45:45;;;;;;;10.70;4.80;;;16.80;93.50;;;;;;5055684;28;20180;-78
2022/04/13 10:48:26;;;;;;;8.90;4.00;;;16.80;93.50;;;;;;5055686;28;20183;-78
2022/04/13 10:51:02;;;;;;;7.47;3.63;;;16.80;93.40;;;;;;5055173;28;20599;-78
2022/04/13 10:53:35;;;;;;;8.33;3.67;;;16.90;93.50;;;;;;5055105;28;20258;-78
2022/04/13 10:56:06;;;;;;;5.90;3.93;;;16.90;93.50;;;;;;5054985;28;21013;-78
2022/04/13 10:58:44;;;;;;;8.70;4.00;;;16.90;93.40;;;;;;5054900;28;20199;-78
2022/04/13 11:01:15;;;;;;;6.47;4.20;;;16.90;93.20;;;;;;5051905;28;20179;-78
2022/04/13 11:03:43;;;;;;;7.30;4.20;;;16.90;93.30;;;;;;5057707;28;20176;-78
2022/04/13 11:06:11;;;;;;;7.07;4.27;;;16.90;93.30;;;;;;5054633;28;20275;-78
2022/04/13 11:09:04;;;;;;;10.73;4.13;;;16.90;93.30;;;;;;5038802;28;20188;-78
2022/04/13 11:11:35;;;;;;;4.73;3.50;;;16.90;93.30;;;;;;5052465;28;20254;-77
2022/04/13 11:14:17;;;;;;;6.43;3.70;;;16.90;93.40;;;;;;5054280;28;20178;-78
2022/04/13 11:16:44;;;;;;;4.90;3.43;;;16.80;93.30;;;;;;5054238;28;20184;-78
2022/04/13 11:19:11;;;;;;;5.33;2.90;;;16.70;93.40;;;;;;5040287;28;20172;-78
2022/04/13 11:21:54;;;;;;;8.30;3.40;;;16.70;93.40;;;;;;5054930;28;20172;-79
2022/04/13 11:24:39;;;;;;;7.90;3.30;;;16.60;93.40;;;;;;5053778;28;20183;-80
2022/04/13 11:27:08;;;;;;;6.00;3.60;;;16.50;93.40;;;;;;5054568;28;20184;-79
2022/04/13 11:29:38;;;;;;;7.67;3.90;;;16.50;93.80;;;;;;5054166;28;21712;-77
2022/04/13 11:32:09;;;;;;;4.80;3.20;;;16.40;93.90;;;;;;5054221;28;20184;-79
2022/04/13 11:34:40;;;;;;;4.77;3.33;;;16.40;93.80;;;;;;5054033;28;20186;-78
2022/04/13 11:37:18;;;;;;;4.03;3.53;;;16.40;94.00;;;;;;5037570;28;20252;-78
2022/04/13 11:39:56;;;;;;;7.77;3.80;;;16.40;93.80;;;;;;5044613;28;20241;-77
2022/04/13 11:42:26;;;;;;;4.53;3.47;;;16.30;94.00;;;;;;5052329;28;20216;-75
2022/04/13 11:45:03;;;;;;;6.90;3.97;;;16.30;94.10;;;;;;5053095;28;20190;-77
2022/04/13 11:47:41;;;;;;;10.50;3.97;;;16.30;94.10;;;;;;5052687;28;20659;-77
2022/04/13 11:50:14;;;;;;;9.60;4.63;;;16.20;94.10;;;;;;5052953;28;20199;-77
2022/04/13 11:52:57;;;;;;;8.63;4.30;;;16.20;94.20;;;;;;5052090;28;20230;-78
2022/04/13 11:55:38;;;;;;;4.70;4.20;;;16.20;94.20;;;;;;5049186;28;20271;-76
2022/04/13 11:58:08;;;;;;;5.40;4.50;;;16.20;94.20;;;;;;5039929;28;20190;-78
2022/04/13 12:00:43;;;;;;;5.17;4.37;;;16.20;94.10;;;;;;5049865;28;20317;-76
2022/04/13 12:03:20;;;;;;;6.17;4.57;;;16.20;94.20;;;;;;5064260;28;20717;-79
2022/04/13 12:05:53;;;;;;;6.40;4.60;;;16.30;94.30;;;;;;5056427;28;20206;-80
2022/04/13 12:08:27;;;;;;;6.87;4.57;;;16.30;94.30;;;;;;5047454;28;20187;-78
2022/04/13 12:11:03;;;;;;;5.40;4.90;;;16.30;94.30;;;;;;5051642;28;20218;-78
2022/04/13 12:13:44;;;;;;;4.93;4.50;;;16.30;94.20;;;;;;5053842;28;20175;-78
2022/04/13 12:16:23;;;;;;;7.13;5.30;;;16.30;94.10;;;;;;5052671;28;20345;-77
2022/04/13 12:18:52;;;;;;;5.40;5.00;;;16.30;94.10;;;;;;5052986;28;20259;-82
2022/04/13 12:21:24;;;;;;;7.43;4.90;;;16.20;94.10;;;;;;5054051;28;20190;-78
2022/04/13 12:23:53;;;;;;;8.80;4.90;;;16.20;94.10;;;;;;5052414;28;20184;-77
2022/04/13 12:26:52;;;;;;;6.33;4.87;;;16.20;94.10;;;;;;5052403;28;20187;-81
2022/04/13 12:29:23;;;;;;;7.90;5.47;;;16.10;94.10;;;;;;5040935;28;20238;-79
2022/04/13 12:31:53;;;;;;;6.00;5.13;;;16.10;94.30;;;;;;5055281;28;20226;-76
2022/04/13 12:34:26;;;;;;;6.60;5.07;;;16.10;94.20;;;;;;5053445;28;20194;-78
2022/04/13 12:36:58;;;;;;;6.67;6.03;;;16.10;94.50;;;;;;5053611;28;20202;-78
2022/04/13 12:39:33;;;;;;;6.63;5.80;;;16.10;94.40;;;;;;5052365;28;20237;-80
2022/04/13 12:42:04;;;;;;;6.13;5.50;;;16.10;94.40;;;;;;5052151;28;20623;-79
2022/04/13 12:44:32;;;;;;;6.07;5.37;;;16.10;94.20;;;;;;5053257;28;20179;-78
2022/04/13 12:47:12;;;;;;;5.90;5.30;;;16.20;94.40;;;;;;5052332;28;20187;-76
2022/04/13 12:49:40;;;;;;;8.77;5.80;;;16.10;94.30;;;;;;5052343;28;20511;-77
2022/04/13 12:52:09;;;;;;;7.13;6.03;;;16.20;94.40;;;;;;5053040;28;20541;-79
2022/04/13 12:54:41;;;;;;;6.33;5.70;;;16.20;94.30;;;;;;5051506;28;20545;-78
2022/04/13 12:57:11;;;;;;;9.83;6.30;;;16.10;94.30;;;;;;5051545;28;20186;-76